Terminal Aerodrome Forecast
Issued by NWS

Current Version | Previous Version | Graphics & Text | Print | Product List | Glossary On
Versions: 1 2 3 4 5 6 7 8 9 10 11 12 13 14 15 16 17 18
000
FTUS41 KPBZ 270500
TAFMGW
TAF
KMGW 270528Z 2706/2806 32006KT P6SM BKN015
     FM271500 31008KT P6SM BKN025
     FM271600 31007KT P6SM SCT035 BKN050=

USA.gov is the U.S. government's official web portal to all federal, state and local government web resources and services.